Time;durP1;ratioP1;P1;durP2;ratioP2;P2;SDS_P1;SDS_P2;PMS_P1;PMS_P2;Temp;Humidity;BMP_temperature;BMP_pressure;BME280_temperature;BME280_humidity;BME280_pressure;Samples;Min_cycle;Max_cycle;Signal;HPM_P1;HPM_P2
2021/07/30 00:01:29;;;;;;;2.08;1.88;;;;;;;;;;5043728;28;20025;-62
2021/07/30 00:03:55;;;;;;;2.05;1.85;;;;;;;;;;5025909;28;20033;-63
2021/07/30 00:06:22;;;;;;;2.15;1.95;;;;;;;;;;5024176;28;20417;-62
2021/07/30 00:08:48;;;;;;;1.90;1.80;;;;;;;;;;5025139;28;20538;-62
2021/07/30 00:11:14;;;;;;;2.05;1.90;;;;;;;;;;5026010;28;20032;-62
2021/07/30 00:13:40;;;;;;;1.95;1.70;;;;;;;;;;5043742;28;20139;-63
2021/07/30 00:16:06;;;;;;;2.55;2.33;;;;;;;;;;5044146;28;20457;-62
2021/07/30 00:18:32;;;;;;;2.88;2.20;;;;;;;;;;5044337;28;20021;-63
2021/07/30 00:20:58;;;;;;;3.42;2.40;;;;;;;;;;5032609;28;20099;-64
2021/07/30 00:23:25;;;;;;;3.20;2.67;;;;;;;;;;5024860;28;20056;-63
2021/07/30 00:25:52;;;;;;;3.00;2.58;;;;;;;;;;5028539;28;20116;-63
2021/07/30 00:28:18;;;;;;;2.83;2.55;;;;;;;;;;5028842;28;20025;-63
2021/07/30 00:30:44;;;;;;;2.92;2.72;;;;;;;;;;5036453;28;20033;-64
2021/07/30 00:33:10;;;;;;;2.65;2.40;;;;;;;;;;5037941;28;20509;-64
2021/07/30 00:35:36;;;;;;;2.65;2.45;;;;;;;;;;5032256;28;20026;-64
2021/07/30 00:38:02;;;;;;;2.80;2.30;;;;;;;;;;5028131;28;20400;-64
2021/07/30 00:40:28;;;;;;;3.83;2.67;;;;;;;;;;5039308;28;20033;-63
2021/07/30 00:42:54;;;;;;;2.90;2.40;;;;;;;;;;5048188;28;20399;-63
2021/07/30 00:45:21;;;;;;;5.47;2.88;;;;;;;;;;5029192;28;20033;-63
2021/07/30 00:47:48;;;;;;;3.85;2.72;;;;;;;;;;5029560;28;20041;-63
2021/07/30 00:50:14;;;;;;;2.58;2.38;;;;;;;;;;5029139;28;20037;-63
2021/07/30 00:52:41;;;;;;;2.58;2.33;;;;;;;;;;5027853;28;20033;-63
2021/07/30 00:55:08;;;;;;;3.13;2.50;;;;;;;;;;5027967;28;20029;-63
2021/07/30 00:57:34;;;;;;;2.90;2.20;;;;;;;;;;5027467;28;20029;-63
2021/07/30 01:00:00;;;;;;;2.65;2.45;;;;;;;;;;5027629;28;20380;-63
2021/07/30 01:02:26;;;;;;;2.55;2.35;;;;;;;;;;5027695;28;20263;-63
2021/07/30 01:04:52;;;;;;;2.38;2.17;;;;;;;;;;5029428;28;20396;-63
2021/07/30 01:07:18;;;;;;;2.60;2.35;;;;;;;;;;5027867;28;20055;-63
2021/07/30 01:09:46;;;;;;;2.25;2.05;;;;;;;;;;5027903;28;20112;-63
2021/07/30 01:12:13;;;;;;;4.75;2.35;;;;;;;;;;5027544;28;20495;-63
2021/07/30 01:14:40;;;;;;;2.70;2.20;;;;;;;;;;5027173;28;20075;-63
2021/07/30 01:17:06;;;;;;;2.50;2.17;;;;;;;;;;5027034;28;20021;-63
2021/07/30 01:19:33;;;;;;;3.13;2.17;;;;;;;;;;5027428;28;20037;-63
2021/07/30 01:22:01;;;;;;;2.60;2.40;;;;;;;;;;5027019;28;20040;-63
2021/07/30 01:24:29;;;;;;;2.45;2.22;;;;;;;;;;5027345;28;20045;-63
2021/07/30 01:26:56;;;;;;;2.10;1.90;;;;;;;;;;5027243;28;20519;-63
2021/07/30 01:29:24;;;;;;;2.50;2.30;;;;;;;;;;5027314;28;20033;-63
2021/07/30 01:31:50;;;;;;;2.65;2.45;;;;;;;;;;5027286;28;20048;-63
2021/07/30 01:34:16;;;;;;;2.28;2.08;;;;;;;;;;5026405;28;20466;-64
2021/07/30 01:36:43;;;;;;;2.60;2.30;;;;;;;;;;5027378;28;20026;-64
2021/07/30 01:39:09;;;;;;;3.17;2.58;;;;;;;;;;5026452;28;20037;-63
2021/07/30 01:41:35;;;;;;;2.72;2.30;;;;;;;;;;5026757;28;20018;-63
2021/07/30 01:44:01;;;;;;;2.45;2.22;;;;;;;;;;5027140;28;20112;-63
2021/07/30 01:46:28;;;;;;;3.17;2.17;;;;;;;;;;5026501;28;20559;-63
2021/07/30 01:48:55;;;;;;;2.33;2.13;;;;;;;;;;5026693;28;20482;-63
2021/07/30 01:51:21;;;;;;;2.65;2.45;;;;;;;;;;5026196;28;20037;-63
2021/07/30 01:53:47;;;;;;;2.50;2.30;;;;;;;;;;5027294;28;20033;-63
2021/07/30 01:56:13;;;;;;;2.78;2.50;;;;;;;;;;5026797;28;20570;-63
2021/07/30 01:58:41;;;;;;;2.90;2.45;;;;;;;;;;5025767;28;20037;-63
2021/07/30 02:01:07;;;;;;;2.50;2.30;;;;;;;;;;5026605;28;20030;-63
2021/07/30 02:03:33;;;;;;;2.85;2.45;;;;;;;;;;5026472;28;20488;-63
2021/07/30 02:05:59;;;;;;;2.30;2.10;;;;;;;;;;5026182;28;20078;-63
2021/07/30 02:08:26;;;;;;;2.25;2.05;;;;;;;;;;5026073;28;20037;-63
2021/07/30 02:10:53;;;;;;;2.65;2.45;;;;;;;;;;5026537;28;20084;-63
2021/07/30 02:16:04;;;;;;;3.13;2.40;;;;;;;;;;5026512;28;20061;-63
2021/07/30 02:18:30;;;;;;;2.08;1.98;;;;;;;;;;5025552;28;20036;-63
2021/07/30 02:20:56;;;;;;;2.42;2.10;;;;;;;;;;5026325;28;20052;-63
2021/07/30 02:23:22;;;;;;;3.05;2.30;;;;;;;;;;5025516;28;20492;-63
2021/07/30 02:25:49;;;;;;;2.22;2.03;;;;;;;;;;5027461;28;20079;-63
2021/07/30 02:28:15;;;;;;;1.98;1.88;;;;;;;;;;5034103;28;20415;-63
2021/07/30 02:30:41;;;;;;;2.28;2.03;;;;;;;;;;5045527;28;20035;-63
2021/07/30 02:33:07;;;;;;;2.40;2.05;;;;;;;;;;5046107;28;20040;-64
2021/07/30 02:35:33;;;;;;;2.35;2.15;;;;;;;;;;5044898;28;20028;-64
2021/07/30 02:38:00;;;;;;;2.03;1.83;;;;;;;;;;5025941;28;20422;-63
2021/07/30 02:40:26;;;;;;;2.30;2.10;;;;;;;;;;5032713;28;20035;-63
2021/07/30 02:42:52;;;;;;;2.30;2.10;;;;;;;;;;5045925;28;20032;-63
2021/07/30 02:45:18;;;;;;;2.10;1.90;;;;;;;;;;5045976;28;20485;-63
2021/07/30 02:47:44;;;;;;;2.28;1.92;;;;;;;;;;5042813;28;20033;-62
2021/07/30 02:50:10;;;;;;;2.10;1.90;;;;;;;;;;5025858;28;20030;-62
2021/07/30 02:52:36;;;;;;;2.22;2.03;;;;;;;;;;5037741;28;20068;-62
2021/07/30 02:55:03;;;;;;;2.20;2.00;;;;;;;;;;5045633;28;20025;-62
2021/07/30 02:57:30;;;;;;;2.22;2.03;;;;;;;;;;5045306;28;20557;-62
2021/07/30 02:59:57;;;;;;;2.30;2.10;;;;;;;;;;5045572;28;20029;-62
2021/07/30 03:02:24;;;;;;;2.10;1.90;;;;;;;;;;5039097;28;20084;-63
2021/07/30 03:04:50;;;;;;;2.35;2.15;;;;;;;;;;5031964;28;20103;-63
2021/07/30 03:07:16;;;;;;;2.35;2.10;;;;;;;;;;5024889;28;20203;-63
2021/07/30 03:09:42;;;;;;;2.53;2.22;;;;;;;;;;5025384;28;20037;-63
2021/07/30 03:12:08;;;;;;;2.47;2.10;;;;;;;;;;5025594;28;20531;-63
2021/07/30 03:14:34;;;;;;;2.63;2.30;;;;;;;;;;5025086;28;20569;-63
2021/07/30 03:17:01;;;;;;;2.90;2.60;;;;;;;;;;5024893;28;20044;-62
2021/07/30 03:19:27;;;;;;;2.30;2.10;;;;;;;;;;5036633;28;20028;-62
2021/07/30 03:21:53;;;;;;;2.83;2.33;;;;;;;;;;5046557;28;20095;-62
2021/07/30 03:24:20;;;;;;;1.85;1.75;;;;;;;;;;5045339;28;20031;-63
2021/07/30 03:26:46;;;;;;;2.42;2.22;;;;;;;;;;5044516;28;20144;-63
2021/07/30 03:29:13;;;;;;;4.13;2.38;;;;;;;;;;5029866;28;20108;-63
2021/07/30 03:31:39;;;;;;;3.00;2.38;;;;;;;;;;5024399;28;20029;-63
2021/07/30 03:34:06;;;;;;;2.72;2.38;;;;;;;;;;5025059;28;20026;-63
2021/07/30 03:36:33;;;;;;;2.45;2.10;;;;;;;;;;5024856;28;20389;-63
2021/07/30 03:39:00;;;;;;;2.92;2.53;;;;;;;;;;5025252;28;20032;-63
2021/07/30 03:41:26;;;;;;;2.40;2.20;;;;;;;;;;5025235;28;20029;-63
2021/07/30 03:43:52;;;;;;;3.13;2.45;;;;;;;;;;5025006;28;20083;-62
2021/07/30 03:46:18;;;;;;;2.63;2.40;;;;;;;;;;5024906;28;20526;-62
2021/07/30 03:48:44;;;;;;;2.60;2.35;;;;;;;;;;5025360;28;20033;-63
2021/07/30 03:51:10;;;;;;;2.97;2.20;;;;;;;;;;5024899;28;20037;-62
2021/07/30 03:53:36;;;;;;;2.72;2.20;;;;;;;;;;5024778;28;20310;-62
2021/07/30 03:56:02;;;;;;;2.97;2.17;;;;;;;;;;5024992;28;20056;-62
2021/07/30 03:58:28;;;;;;;2.22;2.03;;;;;;;;;;5039877;28;20060;-63
2021/07/30 04:00:55;;;;;;;2.30;2.10;;;;;;;;;;5031168;28;20060;-62
2021/07/30 04:03:21;;;;;;;2.60;2.40;;;;;;;;;;5030867;28;20179;-62
2021/07/30 04:05:48;;;;;;;2.67;2.35;;;;;;;;;;5029518;28;20532;-63
2021/07/30 04:08:14;;;;;;;2.60;2.40;;;;;;;;;;5028893;28;20029;-63
2021/07/30 04:10:40;;;;;;;2.58;2.30;;;;;;;;;;5028395;28;20029;-63
2021/07/30 04:13:06;;;;;;;2.83;2.45;;;;;;;;;;5028731;28;20044;-63
2021/07/30 04:15:32;;;;;;;2.75;2.33;;;;;;;;;;5028060;28;20029;-62
2021/07/30 04:17:58;;;;;;;2.70;2.33;;;;;;;;;;5048673;28;20048;-62
2021/07/30 04:20:24;;;;;;;2.67;2.42;;;;;;;;;;5048032;28;20130;-62
2021/07/30 04:22:51;;;;;;;2.90;2.55;;;;;;;;;;5048470;28;20031;-63
2021/07/30 04:25:17;;;;;;;2.95;2.30;;;;;;;;;;5043741;28;20037;-63
2021/07/30 04:27:43;;;;;;;2.55;2.30;;;;;;;;;;5028597;28;20564;-63
2021/07/30 04:30:09;;;;;;;2.65;2.45;;;;;;;;;;5028407;28;20533;-63
2021/07/30 04:32:36;;;;;;;2.90;2.60;;;;;;;;;;5027679;28;20495;-63
2021/07/30 04:35:02;;;;;;;3.83;2.78;;;;;;;;;;5028098;28;20025;-62
2021/07/30 04:37:28;;;;;;;2.92;2.67;;;;;;;;;;5028065;28;20040;-62
2021/07/30 04:39:54;;;;;;;2.90;2.40;;;;;;;;;;5028274;28;20079;-62
2021/07/30 04:42:20;;;;;;;2.80;2.45;;;;;;;;;;5028226;28;20030;-63
2021/07/30 04:44:46;;;;;;;3.10;2.50;;;;;;;;;;5027216;28;20029;-62
2021/07/30 04:47:12;;;;;;;2.97;2.67;;;;;;;;;;5028281;28;20044;-62
2021/07/30 04:49:38;;;;;;;2.55;2.35;;;;;;;;;;5027696;28;20141;-62
2021/07/30 04:52:04;;;;;;;2.63;2.10;;;;;;;;;;5028103;28;20088;-62
2021/07/30 04:54:31;;;;;;;2.75;2.33;;;;;;;;;;5026146;28;20034;-62
2021/07/30 04:56:58;;;;;;;3.60;2.85;;;;;;;;;;5026929;28;20494;-62
2021/07/30 04:59:25;;;;;;;3.45;2.33;;;;;;;;;;5027837;28;20076;-62
2021/07/30 05:01:52;;;;;;;3.03;2.70;;;;;;;;;;5027932;28;20035;-63
2021/07/30 05:04:19;;;;;;;2.75;2.45;;;;;;;;;;5027890;28;20026;-62
2021/07/30 05:06:45;;;;;;;2.97;2.38;;;;;;;;;;5028442;28;20465;-62
2021/07/30 05:09:11;;;;;;;2.60;2.40;;;;;;;;;;5026982;28;20388;-63
2021/07/30 05:11:37;;;;;;;2.40;2.20;;;;;;;;;;5027663;28;20383;-62
2021/07/30 05:14:04;;;;;;;2.60;2.40;;;;;;;;;;5027178;28;20037;-62
2021/07/30 05:16:30;;;;;;;2.70;2.40;;;;;;;;;;5027329;28;20499;-62
2021/07/30 05:18:56;;;;;;;2.50;2.30;;;;;;;;;;5027497;28;20086;-62
2021/07/30 05:21:22;;;;;;;2.35;2.15;;;;;;;;;;5033998;28;20540;-62
2021/07/30 05:23:48;;;;;;;2.38;2.17;;;;;;;;;;5045546;28;20428;-63
2021/07/30 05:26:14;;;;;;;2.55;2.22;;;;;;;;;;5027681;28;20077;-63
2021/07/30 05:28:40;;;;;;;2.83;2.55;;;;;;;;;;5027005;28;20381;-63
2021/07/30 05:31:06;;;;;;;2.33;2.13;;;;;;;;;;5027423;28;20135;-63
2021/07/30 05:33:35;;;;;;;2.42;2.03;;;;;;;;;;5026795;28;20423;-63
2021/07/30 05:36:02;;;;;;;2.63;2.22;;;;;;;;;;5027588;28;20049;-63
2021/07/30 05:38:28;;;;;;;2.30;2.10;;;;;;;;;;5028305;28;20099;-62
2021/07/30 05:40:54;;;;;;;2.72;2.25;;;;;;;;;;5028626;28;20021;-62
2021/07/30 05:43:20;;;;;;;2.83;2.53;;;;;;;;;;5026647;28;20563;-63
2021/07/30 05:45:46;;;;;;;2.13;1.92;;;;;;;;;;5028022;28;20404;-63
2021/07/30 05:48:12;;;;;;;2.72;2.22;;;;;;;;;;5026563;28;20129;-64
2021/07/30 05:50:38;;;;;;;2.42;2.22;;;;;;;;;;5026663;28;20580;-64
2021/07/30 05:53:04;;;;;;;3.00;2.42;;;;;;;;;;5036444;28;20029;-62
2021/07/30 05:55:30;;;;;;;2.80;2.40;;;;;;;;;;5030863;28;20114;-62
2021/07/30 05:57:59;;;;;;;2.83;2.60;;;;;;;;;;5031538;28;20017;-62
2021/07/30 06:00:26;;;;;;;2.30;2.08;;;;;;;;;;5055086;28;20122;-62
2021/07/30 06:02:53;;;;;;;3.25;2.63;;;;;;;;;;5048317;28;20375;-62
2021/07/30 06:05:20;;;;;;;2.83;2.40;;;;;;;;;;5048176;28;20475;-62
2021/07/30 06:07:47;;;;;;;2.70;2.35;;;;;;;;;;5036018;28;20380;-62
2021/07/30 06:10:13;;;;;;;2.88;2.50;;;;;;;;;;5027633;28;20602;-62
2021/07/30 06:12:39;;;;;;;2.60;2.40;;;;;;;;;;5027372;28;20450;-62
2021/07/30 06:15:06;;;;;;;3.28;2.40;;;;;;;;;;5027610;28;20064;-62
2021/07/30 06:17:32;;;;;;;2.83;2.47;;;;;;;;;;5026038;28;20026;-62
2021/07/30 06:19:58;;;;;;;3.03;2.53;;;;;;;;;;5027695;28;20117;-62
2021/07/30 06:22:24;;;;;;;2.45;2.25;;;;;;;;;;5028133;28;20036;-63
2021/07/30 06:24:50;;;;;;;2.92;2.63;;;;;;;;;;5027625;28;20489;-62
2021/07/30 06:27:17;;;;;;;2.47;2.08;;;;;;;;;;5042165;28;20774;-62
2021/07/30 06:29:43;;;;;;;2.88;2.33;;;;;;;;;;5046176;28;20041;-62
2021/07/30 06:32:09;;;;;;;2.35;2.15;;;;;;;;;;5041606;28;20033;-63
2021/07/30 06:34:35;;;;;;;3.03;2.63;;;;;;;;;;5038760;28;20542;-62
2021/07/30 06:37:01;;;;;;;2.58;2.30;;;;;;;;;;5039236;28;20051;-64
2021/07/30 06:39:28;;;;;;;2.67;2.20;;;;;;;;;;5025997;28;20069;-64
2021/07/30 06:41:55;;;;;;;2.35;2.15;;;;;;;;;;5026415;28;20108;-64
2021/07/30 06:44:23;;;;;;;2.40;2.20;;;;;;;;;;5042473;28;20442;-64
2021/07/30 06:46:49;;;;;;;2.40;2.20;;;;;;;;;;5030178;28;20112;-63
2021/07/30 06:49:15;;;;;;;2.20;2.00;;;;;;;;;;5035908;28;20083;-62
2021/07/30 06:51:41;;;;;;;2.40;2.20;;;;;;;;;;5027358;28;20029;-62
2021/07/30 06:54:07;;;;;;;3.28;1.95;;;;;;;;;;5037274;28;20033;-62
2021/07/30 06:56:34;;;;;;;2.40;2.08;;;;;;;;;;5030535;28;20022;-63
2021/07/30 06:59:00;;;;;;;2.38;2.17;;;;;;;;;;5030481;28;20032;-63
2021/07/30 07:01:26;;;;;;;2.63;2.20;;;;;;;;;;5054567;28;20017;-63
2021/07/30 07:03:53;;;;;;;2.67;2.30;;;;;;;;;;5060438;28;20663;-61
2021/07/30 07:06:19;;;;;;;2.20;2.00;;;;;;;;;;5027020;28;20484;-65
2021/07/30 07:08:45;;;;;;;2.50;2.30;;;;;;;;;;5025023;28;20021;-66
2021/07/30 07:11:13;;;;;;;2.47;2.28;;;;;;;;;;5040221;28;20040;-65
2021/07/30 07:13:42;;;;;;;2.28;2.08;;;;;;;;;;5032308;28;20036;-66
2021/07/30 07:16:08;;;;;;;2.88;2.20;;;;;;;;;;5026926;28;20038;-65
2021/07/30 07:18:34;;;;;;;2.30;2.10;;;;;;;;;;5026444;28;20028;-65
2021/07/30 07:21:00;;;;;;;2.17;1.98;;;;;;;;;;5042169;28;20092;-65
2021/07/30 07:23:27;;;;;;;2.75;2.20;;;;;;;;;;5034094;28;20033;-64
2021/07/30 07:25:53;;;;;;;1.70;1.60;;;;;;;;;;5043646;28;20037;-65
2021/07/30 07:28:19;;;;;;;1.95;1.85;;;;;;;;;;5045825;28;20119;-65
2021/07/30 07:30:45;;;;;;;2.13;1.85;;;;;;;;;;5045169;28;20025;-65
2021/07/30 07:33:11;;;;;;;2.05;1.85;;;;;;;;;;5046097;28;20032;-66
2021/07/30 07:35:37;;;;;;;2.13;1.92;;;;;;;;;;5046689;28;20701;-66
2021/07/30 07:38:04;;;;;;;1.70;1.60;;;;;;;;;;5045237;28;20369;-66
2021/07/30 07:40:30;;;;;;;2.78;2.05;;;;;;;;;;5031161;28;20349;-65
2021/07/30 07:42:57;;;;;;;1.85;1.75;;;;;;;;;;5045016;28;20450;-65
2021/07/30 07:45:23;;;;;;;1.98;1.83;;;;;;;;;;5037625;28;20044;-66
2021/07/30 07:47:49;;;;;;;2.00;1.80;;;;;;;;;;5025540;28;20088;-66
2021/07/30 07:50:15;;;;;;;2.88;1.95;;;;;;;;;;5026190;28;20501;-64
2021/07/30 07:52:42;;;;;;;2.15;1.95;;;;;;;;;;5043661;28;20123;-65
2021/07/30 07:55:08;;;;;;;2.75;2.40;;;;;;;;;;5045406;28;20025;-64
2021/07/30 07:57:34;;;;;;;2.17;1.98;;;;;;;;;;5043992;28;20079;-65
2021/07/30 08:00:00;;;;;;;2.03;1.83;;;;;;;;;;5042644;28;20488;-66
2021/07/30 08:02:26;;;;;;;2.45;2.10;;;;;;;;;;5042949;28;20035;-65
2021/07/30 08:04:52;;;;;;;2.47;2.03;;;;;;;;;;5044504;28;20474;-65
2021/07/30 08:07:20;;;;;;;2.80;2.10;;;;;;;;;;5034898;28;20037;-65
2021/07/30 08:09:46;;;;;;;2.13;1.92;;;;;;;;;;5042237;28;20029;-65
2021/07/30 08:12:13;;;;;;;2.22;2.03;;;;;;;;;;5035422;28;20026;-65
2021/07/30 08:14:39;;;;;;;2.63;2.30;;;;;;;;;;5026211;28;20498;-64
2021/07/30 08:17:06;;;;;;;3.13;2.38;;;;;;;;;;5026425;28;20064;-64
2021/07/30 08:19:34;;;;;;;2.40;2.20;;;;;;;;;;5024352;28;20029;-65
2021/07/30 08:22:00;;;;;;;2.65;2.22;;;;;;;;;;5027393;28;20503;-65
2021/07/30 08:24:27;;;;;;;2.45;2.20;;;;;;;;;;5046492;28;20037;-64
2021/07/30 08:26:55;;;;;;;2.42;2.22;;;;;;;;;;5033311;28;20033;-65
2021/07/30 08:29:22;;;;;;;2.45;2.05;;;;;;;;;;5029281;28;20033;-66
2021/07/30 08:31:48;;;;;;;2.03;1.83;;;;;;;;;;5041053;28;20032;-65
2021/07/30 08:34:15;;;;;;;2.60;2.40;;;;;;;;;;5025624;28;20057;-64
2021/07/30 08:36:41;;;;;;;2.42;2.22;;;;;;;;;;5026556;28;20025;-64
2021/07/30 08:39:08;;;;;;;2.20;2.00;;;;;;;;;;5023753;28;20033;-64
2021/07/30 08:41:35;;;;;;;2.10;1.92;;;;;;;;;;5027546;28;20025;-65
2021/07/30 08:44:02;;;;;;;2.72;2.15;;;;;;;;;;5040420;28;20029;-64
2021/07/30 08:46:31;;;;;;;2.20;2.00;;;;;;;;;;5029951;28;20080;-64
2021/07/30 08:48:57;;;;;;;2.55;2.28;;;;;;;;;;5027479;28;20412;-65
2021/07/30 08:51:25;;;;;;;2.47;2.28;;;;;;;;;;5041129;28;20043;-64
2021/07/30 08:53:51;;;;;;;2.83;2.53;;;;;;;;;;5043013;28;20032;-64
2021/07/30 08:56:17;;;;;;;2.85;2.50;;;;;;;;;;5034355;28;20072;-64
2021/07/30 08:58:44;;;;;;;2.53;2.33;;;;;;;;;;5036055;28;20025;-66
2021/07/30 09:01:11;;;;;;;2.30;2.10;;;;;;;;;;5033921;28;20419;-66
2021/07/30 09:03:41;;;;;;;2.10;1.90;;;;;;;;;;5028205;28;20044;-66
2021/07/30 09:06:20;;;;;;;3.88;2.30;;;;;;;;;;5027161;28;20033;-66
2021/07/30 09:09:03;;;;;;;2.15;1.90;;;;;;;;;;5030917;28;20033;-66
2021/07/30 09:11:30;;;;;;;2.88;1.95;;;;;;;;;;5034484;28;20036;-66
2021/07/30 09:13:57;;;;;;;3.03;2.40;;;;;;;;;;5048127;28;20025;-65
2021/07/30 09:16:23;;;;;;;2.50;2.08;;;;;;;;;;5031839;28;20284;-66
2021/07/30 09:18:51;;;;;;;2.53;2.33;;;;;;;;;;5027865;28;20026;-65
2021/07/30 09:21:19;;;;;;;2.72;2.35;;;;;;;;;;5045604;28;20143;-66
2021/07/30 09:23:53;;;;;;;2.47;2.28;;;;;;;;;;5049296;28;20557;-67
2021/07/30 09:26:37;;;;;;;2.85;2.47;;;;;;;;;;5048387;28;20534;-67
2021/07/30 09:29:08;;;;;;;2.42;2.20;;;;;;;;;;5037497;28;20175;-66
2021/07/30 09:31:38;;;;;;;2.30;2.10;;;;;;;;;;5040100;28;20036;-67
2021/07/30 09:34:15;;;;;;;2.50;2.30;;;;;;;;;;5042157;28;20503;-66
2021/07/30 09:36:43;;;;;;;2.20;2.00;;;;;;;;;;5033156;28;20472;-65
2021/07/30 09:39:09;;;;;;;3.42;2.63;;;;;;;;;;5043086;28;20095;-65
2021/07/30 09:41:35;;;;;;;3.15;2.75;;;;;;;;;;5041822;28;20460;-64
2021/07/30 09:44:08;;;;;;;2.25;2.05;;;;;;;;;;5033814;28;20044;-66
2021/07/30 09:46:35;;;;;;;3.15;2.70;;;;;;;;;;5030058;28;20041;-66
2021/07/30 09:49:01;;;;;;;2.53;2.33;;;;;;;;;;5027613;28;20022;-66
2021/07/30 09:51:28;;;;;;;2.78;2.45;;;;;;;;;;5027913;28;20079;-63
2021/07/30 09:53:55;;;;;;;2.75;2.53;;;;;;;;;;5027729;28;20022;-62
2021/07/30 09:56:23;;;;;;;2.80;2.50;;;;;;;;;;5037475;28;20052;-66
2021/07/30 09:58:53;;;;;;;3.03;2.72;;;;;;;;;;5041310;28;20112;-65
2021/07/30 10:01:21;;;;;;;3.25;2.92;;;;;;;;;;5028806;28;20030;-66
2021/07/30 10:03:51;;;;;;;3.53;3.22;;;;;;;;;;5039581;28;20440;-66
2021/07/30 10:06:17;;;;;;;3.38;2.80;;;;;;;;;;5039216;28;20460;-65
2021/07/30 10:08:43;;;;;;;2.97;2.67;;;;;;;;;;5035066;28;20091;-66
2021/07/30 10:11:14;;;;;;;3.00;2.70;;;;;;;;;;5035646;28;20029;-67
2021/07/30 10:13:48;;;;;;;2.35;2.15;;;;;;;;;;5039668;28;20030;-67
2021/07/30 10:16:15;;;;;;;2.03;1.85;;;;;;;;;;5028100;28;20458;-67
2021/07/30 10:18:42;;;;;;;2.78;2.58;;;;;;;;;;5027998;28;20022;-67
2021/07/30 10:21:08;;;;;;;3.30;3.00;;;;;;;;;;5044013;28;20041;-66
2021/07/30 10:23:38;;;;;;;2.25;2.05;;;;;;;;;;5042131;28;20028;-67
2021/07/30 10:26:05;;;;;;;1.63;1.52;;;;;;;;;;5034576;28;20064;-66
2021/07/30 10:28:34;;;;;;;2.25;2.00;;;;;;;;;;5027769;28;20037;-66
2021/07/30 10:31:03;;;;;;;2.00;1.80;;;;;;;;;;5028006;28;20037;-66
2021/07/30 10:33:36;;;;;;;2.45;2.25;;;;;;;;;;5027369;28;20036;-68
2021/07/30 10:36:03;;;;;;;1.80;1.67;;;;;;;;;;5041867;28;20036;-65
2021/07/30 10:38:29;;;;;;;2.00;1.80;;;;;;;;;;5035811;28;20025;-67
2021/07/30 10:40:58;;;;;;;1.70;1.60;;;;;;;;;;5027597;28;20056;-66
2021/07/30 10:43:27;;;;;;;2.00;1.80;;;;;;;;;;5030007;28;20037;-66
2021/07/30 10:46:08;;;;;;;1.83;1.50;;;;;;;;;;5028650;28;20403;-66
2021/07/30 10:48:35;;;;;;;1.63;1.52;;;;;;;;;;5027807;28;20150;-66
2021/07/30 10:51:02;;;;;;;2.30;2.10;;;;;;;;;;5028440;28;20438;-66
2021/07/30 10:56:01;;;;;;;1.60;1.50;;;;;;;;;;5044934;28;20088;-66
2021/07/30 10:58:39;;;;;;;1.40;1.27;;;;;;;;;;5027534;28;20407;-66
2021/07/30 11:01:06;;;;;;;1.90;1.80;;;;;;;;;;5027798;28;20026;-64
2021/07/30 11:03:53;;;;;;;2.10;1.73;;;;;;;;;;5027801;28;20674;-64
2021/07/30 11:06:22;;;;;;;2.58;2.38;;;;;;;;;;5026915;28;20033;-66
2021/07/30 11:09:06;;;;;;;3.00;2.67;;;;;;;;;;5042009;28;20483;-63
2021/07/30 11:11:48;;;;;;;2.47;2.28;;;;;;;;;;5034714;28;20415;-63
2021/07/30 11:14:14;;;;;;;2.53;2.30;;;;;;;;;;5038370;28;20029;-62
2021/07/30 11:16:40;;;;;;;2.55;2.35;;;;;;;;;;5035009;28;20096;-63
2021/07/30 11:19:08;;;;;;;2.47;2.22;;;;;;;;;;5027548;28;20051;-62
2021/07/30 11:21:34;;;;;;;2.15;1.98;;;;;;;;;;5034008;28;20426;-62
2021/07/30 11:24:02;;;;;;;3.53;2.78;;;;;;;;;;5031983;28;20033;-62
2021/07/30 11:26:31;;;;;;;4.22;3.50;;;;;;;;;;5031642;28;20140;-62
2021/07/30 11:29:01;;;;;;;3.35;3.05;;;;;;;;;;5033319;28;20052;-64
2021/07/30 11:31:27;;;;;;;3.38;2.50;;;;;;;;;;5037559;28;20047;-64
2021/07/30 11:33:53;;;;;;;2.50;2.30;;;;;;;;;;5028956;28;20076;-63
2021/07/30 11:36:20;;;;;;;3.45;2.85;;;;;;;;;;5037079;28;20033;-63
2021/07/30 11:38:49;;;;;;;3.80;3.42;;;;;;;;;;5031443;28;20601;-62
2021/07/30 11:41:16;;;;;;;3.42;3.13;;;;;;;;;;5042045;28;20070;-63
2021/07/30 11:44:01;;;;;;;3.20;2.90;;;;;;;;;;5037984;28;20403;-61
2021/07/30 11:46:30;;;;;;;3.95;3.55;;;;;;;;;;5031627;28;20033;-62
2021/07/30 11:48:57;;;;;;;4.30;3.58;;;;;;;;;;5032426;28;20106;-62
2021/07/30 11:51:24;;;;;;;3.60;2.90;;;;;;;;;;5036948;28;20065;-62
2021/07/30 11:53:50;;;;;;;3.60;2.97;;;;;;;;;;5038166;28;20040;-62
2021/07/30 11:56:17;;;;;;;2.53;2.33;;;;;;;;;;5026476;28;20084;-62
2021/07/30 11:58:59;;;;;;;3.45;2.80;;;;;;;;;;5035231;28;20040;-61
2021/07/30 12:01:26;;;;;;;2.80;2.60;;;;;;;;;;5029596;28;20574;-62
2021/07/30 12:04:04;;;;;;;2.30;2.10;;;;;;;;;;5044392;28;20033;-62
2021/07/30 12:06:31;;;;;;;3.42;2.70;;;;;;;;;;5044867;28;20097;-63
2021/07/30 12:08:59;;;;;;;2.33;2.13;;;;;;;;;;5026165;28;20052;-62
2021/07/30 12:11:26;;;;;;;2.35;2.15;;;;;;;;;;5027823;28;20029;-62
2021/07/30 12:13:53;;;;;;;2.90;2.60;;;;;;;;;;5024797;28;20137;-62
2021/07/30 12:16:21;;;;;;;4.78;2.60;;;;;;;;;;5024332;28;20079;-63
2021/07/30 12:18:47;;;;;;;2.70;2.47;;;;;;;;;;5024967;28;20079;-62
2021/07/30 12:21:13;;;;;;;3.33;2.60;;;;;;;;;;5033197;28;20045;-63
2021/07/30 12:23:39;;;;;;;2.88;2.58;;;;;;;;;;5030466;28;20108;-62
2021/07/30 12:26:06;;;;;;;2.20;2.00;;;;;;;;;;5047806;28;20248;-63
2021/07/30 12:28:42;;;;;;;2.30;2.10;;;;;;;;;;5041452;28;20137;-62
2021/07/30 12:31:16;;;;;;;1.70;1.60;;;;;;;;;;5037032;28;20663;-62
2021/07/30 12:33:42;;;;;;;1.65;1.55;;;;;;;;;;5045189;28;20059;-62
2021/07/30 12:36:12;;;;;;;1.90;1.80;;;;;;;;;;5036048;28;20026;-62
2021/07/30 12:38:52;;;;;;;2.42;2.22;;;;;;;;;;5031691;28;20033;-62
2021/07/30 12:41:23;;;;;;;2.40;2.20;;;;;;;;;;5032992;28;20537;-63
2021/07/30 12:43:49;;;;;;;2.30;2.10;;;;;;;;;;5047259;28;20076;-64
2021/07/30 12:46:51;;;;;;;2.50;2.30;;;;;;;;;;5045512;28;20067;-64
2021/07/30 12:49:31;;;;;;;2.53;2.13;;;;;;;;;;5041864;28;20072;-64
2021/07/30 12:51:57;;;;;;;2.38;2.17;;;;;;;;;;5032250;28;20041;-63
2021/07/30 12:54:34;;;;;;;2.30;2.10;;;;;;;;;;5048338;28;20037;-64
2021/07/30 12:57:00;;;;;;;2.00;1.90;;;;;;;;;;5047950;28;20025;-64
2021/07/30 12:59:45;;;;;;;2.15;1.85;;;;;;;;;;5037291;28;20053;-64
2021/07/30 13:02:11;;;;;;;2.20;2.00;;;;;;;;;;5028425;28;20029;-64
2021/07/30 13:04:37;;;;;;;2.10;1.90;;;;;;;;;;5040041;28;20115;-64
2021/07/30 13:07:04;;;;;;;2.20;2.00;;;;;;;;;;5044482;28;20021;-63
2021/07/30 13:09:30;;;;;;;1.90;1.70;;;;;;;;;;5045204;28;20029;-64
2021/07/30 13:11:56;;;;;;;1.70;1.60;;;;;;;;;;5035009;28;20483;-64
2021/07/30 13:14:22;;;;;;;2.25;2.05;;;;;;;;;;5036671;28;20053;-64
2021/07/30 13:16:48;;;;;;;1.85;1.75;;;;;;;;;;5037689;28;20052;-65
2021/07/30 13:19:14;;;;;;;2.78;2.58;;;;;;;;;;5027646;28;21105;-64
2021/07/30 13:21:40;;;;;;;2.58;2.30;;;;;;;;;;5036872;28;20491;-65
2021/07/30 13:24:06;;;;;;;2.85;2.63;;;;;;;;;;5028096;28;20439;-65
2021/07/30 13:26:32;;;;;;;2.53;2.33;;;;;;;;;;5028206;28;20087;-66
2021/07/30 13:28:58;;;;;;;2.25;2.13;;;;;;;;;;5028095;28;20755;-66
2021/07/30 13:31:25;;;;;;;2.45;2.25;;;;;;;;;;5037073;28;20601;-65
2021/07/30 13:33:51;;;;;;;2.00;1.80;;;;;;;;;;5037361;28;20064;-63
2021/07/30 13:36:17;;;;;;;2.30;2.10;;;;;;;;;;5039573;28;20448;-63
2021/07/30 13:38:43;;;;;;;2.70;2.50;;;;;;;;;;5028099;28;20022;-64
2021/07/30 13:41:15;;;;;;;2.65;2.30;;;;;;;;;;5046256;28;20418;-72
2021/07/30 13:43:43;;;;;;;4.38;2.58;;;;;;;;;;5045996;28;20562;-70
2021/07/30 13:46:12;;;;;;;2.85;2.65;;;;;;;;;;5047231;28;20037;-72
2021/07/30 13:48:38;;;;;;;4.20;3.60;;;;;;;;;;5047737;28;20711;-64
2021/07/30 13:51:04;;;;;;;4.38;2.75;;;;;;;;;;5045402;28;20406;-62
2021/07/30 13:53:32;;;;;;;2.80;2.53;;;;;;;;;;5034452;28;20132;-63
2021/07/30 13:55:58;;;;;;;2.80;2.55;;;;;;;;;;5035462;28;20684;-63
2021/07/30 13:58:24;;;;;;;4.30;3.50;;;;;;;;;;5029628;28;20029;-62
2021/07/30 14:00:53;;;;;;;4.18;3.45;;;;;;;;;;5044585;28;20021;-65
2021/07/30 14:03:19;;;;;;;4.85;3.33;;;;;;;;;;5031324;28;20037;-64
2021/07/30 14:05:46;;;;;;;5.78;3.60;;;;;;;;;;5028018;28;20068;-66
2021/07/30 14:08:13;;;;;;;3.65;3.20;;;;;;;;;;5028009;28;20026;-66
2021/07/30 14:10:40;;;;;;;4.28;3.40;;;;;;;;;;5026573;28;20026;-66
2021/07/30 14:13:07;;;;;;;2.78;2.42;;;;;;;;;;5025151;28;20574;-66
2021/07/30 14:15:33;;;;;;;3.15;2.85;;;;;;;;;;5026207;28;20505;-65
2021/07/30 14:18:04;;;;;;;2.45;2.25;;;;;;;;;;5026414;28;20029;-65
2021/07/30 14:20:30;;;;;;;2.42;2.22;;;;;;;;;;5025943;28;20071;-66
2021/07/30 14:22:56;;;;;;;3.10;2.80;;;;;;;;;;5025824;28;20462;-66
2021/07/30 14:25:23;;;;;;;3.20;2.75;;;;;;;;;;5026526;28;20087;-66
2021/07/30 14:27:49;;;;;;;2.72;2.45;;;;;;;;;;5026268;28;20425;-66
2021/07/30 14:30:16;;;;;;;2.38;2.17;;;;;;;;;;5026420;28;20385;-66
2021/07/30 14:32:42;;;;;;;2.17;2.00;;;;;;;;;;5026085;28;20021;-66
2021/07/30 14:35:08;;;;;;;3.78;2.80;;;;;;;;;;5025783;28;20116;-66
2021/07/30 14:37:35;;;;;;;3.10;2.72;;;;;;;;;;5035846;28;20377;-66
2021/07/30 14:40:01;;;;;;;3.55;3.00;;;;;;;;;;5046106;28;20021;-66
2021/07/30 14:42:27;;;;;;;4.47;3.25;;;;;;;;;;5043201;28;20060;-66
2021/07/30 14:44:54;;;;;;;2.83;2.53;;;;;;;;;;5046101;28;20037;-66
2021/07/30 14:47:20;;;;;;;3.03;2.60;;;;;;;;;;5045380;28;20472;-65
2021/07/30 14:49:47;;;;;;;3.85;3.00;;;;;;;;;;5045863;28;20111;-65